createdAt,value
2022-12-07T00:00:13.859Z,101211.16
2022-12-07T00:02:47.697Z,101189.72
2022-12-07T00:05:20.540Z,101221.34
2022-12-07T00:07:53.401Z,101222.19
2022-12-07T00:10:26.238Z,101213.91
2022-12-07T00:13:00.424Z,101232.00
2022-12-07T00:15:36.562Z,101208.59
2022-12-07T00:18:09.370Z,101200.03
2022-12-07T00:20:42.142Z,101171.66
2022-12-07T00:23:14.989Z,101218.84
2022-12-07T00:25:50.150Z,101212.00
2022-12-07T00:28:24.668Z,101204.06
2022-12-07T00:31:02.413Z,101169.47
2022-12-07T00:33:36.256Z,101189.78
2022-12-07T00:36:11.719Z,101191.66
2022-12-07T00:38:44.940Z,101171.94
2022-12-07T00:41:20.233Z,101208.66
2022-12-07T00:43:55.063Z,101167.50
2022-12-07T00:46:28.517Z,101181.94
2022-12-07T00:49:01.498Z,101177.97
2022-12-07T00:51:34.371Z,101195.69
2022-12-07T00:54:07.139Z,101186.38
2022-12-07T00:56:39.959Z,101182.63
2022-12-07T00:59:15.861Z,101165.53
2022-12-07T01:01:48.715Z,101160.66
2022-12-07T01:04:21.575Z,101162.28
2022-12-07T01:06:54.375Z,101177.84
2022-12-07T01:09:27.183Z,101160.22
2022-12-07T01:12:00.077Z,101179.41
2022-12-07T01:14:34.272Z,101178.97
2022-12-07T01:17:07.107Z,101168.19
2022-12-07T01:19:40.038Z,101187.38
2022-12-07T01:22:12.819Z,101183.72
2022-12-07T01:24:47.617Z,101159.44
2022-12-07T01:27:22.243Z,101173.41
2022-12-07T01:29:56.541Z,101202.03
2022-12-07T01:32:29.660Z,101183.81
2022-12-07T01:35:02.379Z,101211.50
2022-12-07T01:37:37.539Z,101192.22
2022-12-07T01:40:12.637Z,101185.31
2022-12-07T01:42:45.518Z,101150.88
2022-12-07T01:45:41.650Z,101192.06
2022-12-07T01:48:17.991Z,101172.66
2022-12-07T01:50:53.762Z,101167.69
2022-12-07T01:53:30.537Z,101179.03
2022-12-07T01:56:03.631Z,101140.63
2022-12-07T01:58:36.990Z,101169.94
2022-12-07T02:01:11.244Z,101156.56
2022-12-07T02:03:46.705Z,101134.28
2022-12-07T02:06:23.543Z,101184.84
2022-12-07T02:08:56.511Z,101192.06
2022-12-07T02:11:29.352Z,101187.97
2022-12-07T02:14:02.475Z,101188.28
2022-12-07T02:16:48.265Z,101137.19
2022-12-07T02:19:52.948Z,101169.94
2022-12-07T02:22:51.416Z,101184.59
2022-12-07T02:25:35.574Z,101158.25
2022-12-07T02:28:14.001Z,101153.97
2022-12-07T02:30:50.656Z,101179.38
2022-12-07T02:33:30.689Z,101153.00
2022-12-07T02:36:09.526Z,101148.19
2022-12-07T02:38:49.751Z,101182.81
2022-12-07T02:41:29.601Z,101143.50
2022-12-07T02:44:05.732Z,101191.47
2022-12-07T02:46:43.711Z,101184.78
2022-12-07T02:49:17.172Z,101183.28
2022-12-07T02:51:50.005Z,101157.31
2022-12-07T02:54:24.174Z,101166.16
2022-12-07T02:57:04.016Z,101186.06
2022-12-07T02:59:48.769Z,101180.13
2022-12-07T03:02:31.498Z,101171.97
2022-12-07T03:05:19.900Z,101089.13
2022-12-07T03:08:01.781Z,101190.34
2022-12-07T03:10:42.151Z,101193.28
2022-12-07T03:13:27.426Z,101197.56
2022-12-07T03:16:07.210Z,101195.72
2022-12-07T03:18:46.524Z,101184.59
2022-12-07T03:21:22.094Z,101197.19
2022-12-07T03:23:58.640Z,101185.88
2022-12-07T03:26:37.798Z,101193.84
2022-12-07T03:29:15.466Z,101161.34
2022-12-07T03:31:52.531Z,101168.91
2022-12-07T03:34:34.803Z,101166.47
2022-12-07T03:37:13.000Z,101189.78
2022-12-07T03:39:54.010Z,101182.81
2022-12-07T03:42:27.380Z,101133.53
2022-12-07T03:45:00.991Z,101177.03
2022-12-07T03:47:37.334Z,101173.44
2022-12-07T03:50:17.621Z,101176.09
2022-12-07T03:52:56.599Z,101170.97
2022-12-07T03:55:33.425Z,101154.81
2022-12-07T03:58:11.184Z,101183.31
2022-12-07T04:00:45.104Z,101158.19
2022-12-07T04:03:18.423Z,101116.13
2022-12-07T04:05:53.010Z,101147.50
2022-12-07T04:08:25.986Z,101167.91
2022-12-07T04:10:59.112Z,101174.09
2022-12-07T04:13:51.918Z,101171.31
2022-12-07T04:16:24.799Z,101120.28
2022-12-07T04:18:57.726Z,101160.84
2022-12-07T04:21:31.925Z,101153.84
2022-12-07T04:24:05.552Z,101144.50
2022-12-07T04:26:38.321Z,101159.75
2022-12-07T04:29:11.687Z,101176.16
2022-12-07T04:31:45.164Z,101164.25
2022-12-07T04:34:19.237Z,101171.09
2022-12-07T04:36:53.349Z,101188.66
2022-12-07T04:39:27.784Z,101181.63
2022-12-07T04:42:01.527Z,101179.28
2022-12-07T04:44:46.543Z,101170.59
2022-12-07T04:47:37.851Z,101175.47
2022-12-07T04:50:29.504Z,101175.56
2022-12-07T04:53:04.701Z,101170.31
2022-12-07T04:55:38.131Z,101168.59
2022-12-07T04:58:10.972Z,101165.03
2022-12-07T05:00:43.805Z,101161.47
2022-12-07T05:03:16.594Z,101155.25
2022-12-07T05:05:49.379Z,101111.00
2022-12-07T05:08:23.675Z,101145.09
2022-12-07T05:10:56.791Z,101125.53
2022-12-07T05:13:29.638Z,101158.91
2022-12-07T05:16:04.554Z,101164.25
2022-12-07T05:18:37.337Z,101153.78
2022-12-07T05:21:10.227Z,101159.13
2022-12-07T05:23:44.494Z,101134.22
2022-12-07T05:26:17.243Z,101168.59
2022-12-07T05:28:53.015Z,101164.25
2022-12-07T05:31:27.857Z,101153.41
2022-12-07T05:34:00.669Z,101171.25
2022-12-07T05:36:33.464Z,101172.00
2022-12-07T05:39:08.134Z,101167.59
2022-12-07T05:41:58.499Z,101161.19
2022-12-07T05:44:31.497Z,101160.41
2022-12-07T05:47:05.110Z,101158.56
2022-12-07T05:49:38.045Z,101150.50
2022-12-07T05:52:10.895Z,101159.25
2022-12-07T05:54:45.177Z,101155.84
2022-12-07T05:57:18.127Z,101153.19
2022-12-07T05:59:49.998Z,101137.09
2022-12-07T06:02:22.880Z,101128.53
2022-12-07T06:04:56.362Z,101125.28
2022-12-07T06:07:29.155Z,101144.25
2022-12-07T06:10:03.475Z,101111.34
2022-12-07T06:12:35.584Z,101149.00
2022-12-07T06:15:27.053Z,101152.63
2022-12-07T06:18:02.083Z,101155.25
2022-12-07T06:20:34.916Z,101158.81
2022-12-07T06:23:07.734Z,101145.03
2022-12-07T06:25:41.847Z,101134.06
2022-12-07T06:28:14.906Z,101156.25
2022-12-07T06:30:47.669Z,101137.94
2022-12-07T06:33:20.466Z,101158.47
2022-12-07T06:35:53.250Z,101156.59
2022-12-07T06:38:26.000Z,101137.13
2022-12-07T06:41:00.128Z,101158.47
2022-12-07T06:43:32.996Z,101160.31
2022-12-07T06:46:06.284Z,101167.50
2022-12-07T06:48:39.261Z,101170.28
2022-12-07T06:51:12.165Z,101164.16
2022-12-07T06:53:44.978Z,101144.59
2022-12-07T06:56:19.139Z,101137.19
2022-12-07T06:58:52.081Z,101168.00
2022-12-07T07:01:25.188Z,101137.19
2022-12-07T07:03:58.021Z,101175.25
2022-12-07T07:06:30.966Z,101167.63
2022-12-07T07:09:04.161Z,101124.16
2022-12-07T07:11:38.362Z,101153.56
2022-12-07T07:14:11.187Z,101182.31
2022-12-07T07:16:44.075Z,101167.50
2022-12-07T07:19:16.951Z,101189.63
2022-12-07T07:21:49.785Z,101159.59
2022-12-07T07:24:22.810Z,101153.28
2022-12-07T07:26:56.970Z,101188.22
2022-12-07T07:29:29.750Z,101141.28
2022-12-07T07:32:06.739Z,101177.13
2022-12-07T07:34:39.811Z,101190.22
2022-12-07T07:37:18.699Z,101181.56
2022-12-07T07:39:54.490Z,101183.31
2022-12-07T07:42:28.588Z,101192.00
2022-12-07T07:45:01.353Z,101191.22
2022-12-07T07:47:34.346Z,101191.06
2022-12-07T07:50:08.618Z,101187.50
2022-12-07T07:52:41.818Z,101192.38
2022-12-07T07:55:14.984Z,101193.09
2022-12-07T07:57:54.430Z,101201.81
2022-12-07T08:00:28.019Z,101208.59
2022-12-07T08:03:01.130Z,101160.78
2022-12-07T08:05:33.902Z,101198.47
2022-12-07T08:08:06.986Z,101200.03
2022-12-07T08:10:39.884Z,101200.69
2022-12-07T08:13:14.585Z,101200.56
2022-12-07T08:15:49.422Z,101155.84
2022-12-07T08:18:22.242Z,101155.09
2022-12-07T08:21:01.695Z,101165.66
2022-12-07T08:23:39.467Z,101189.19
2022-12-07T08:26:14.854Z,101203.59
2022-12-07T08:28:49.055Z,101196.47
2022-12-07T08:31:22.210Z,101198.31
2022-12-07T08:33:55.447Z,101194.13
2022-12-07T08:36:28.329Z,101166.75
2022-12-07T08:39:30.498Z,101179.88
2022-12-07T08:41:54.098Z,101200.09
2022-12-07T08:44:28.235Z,101208.59
2022-12-07T08:47:04.571Z,101192.03
2022-12-07T08:49:41.108Z,101212.72
2022-12-07T08:52:13.966Z,101205.78
2022-12-07T08:54:47.244Z,101204.69
2022-12-07T08:57:20.002Z,101207.41
2022-12-07T08:59:54.158Z,101194.63
2022-12-07T09:02:27.493Z,101200.19
2022-12-07T09:05:00.260Z,101199.13
2022-12-07T09:07:35.615Z,101208.69
2022-12-07T09:10:09.623Z,101200.94
2022-12-07T09:12:42.622Z,101205.59
2022-12-07T09:15:17.149Z,101161.75
2022-12-07T09:17:50.146Z,101200.94
2022-12-07T09:20:27.774Z,101202.03
2022-12-07T09:23:01.795Z,101177.09
2022-12-07T09:25:34.860Z,101178.38
2022-12-07T09:28:07.824Z,101204.94
2022-12-07T09:31:21.685Z,101170.44
2022-12-07T09:33:40.529Z,101196.06
2022-12-07T09:36:13.306Z,101210.94
2022-12-07T09:38:46.062Z,101201.91
2022-12-07T09:41:19.257Z,101201.06
2022-12-07T09:43:52.686Z,101206.13
2022-12-07T09:46:27.094Z,101199.38
2022-12-07T09:48:59.939Z,101201.56
2022-12-07T09:51:33.515Z,101205.44
2022-12-07T09:54:06.374Z,101201.00
2022-12-07T09:56:39.281Z,101200.63
2022-12-07T09:59:18.512Z,101162.31
2022-12-07T10:01:52.855Z,101196.59
2022-12-07T10:04:27.598Z,101171.00
2022-12-07T10:07:00.503Z,101194.63
2022-12-07T10:09:36.082Z,101183.72
2022-12-07T10:12:11.259Z,101183.31
2022-12-07T10:15:07.303Z,101114.63
2022-12-07T10:17:49.554Z,101154.41
2022-12-07T10:20:27.478Z,101168.28
2022-12-07T10:23:03.051Z,101175.97
2022-12-07T10:25:39.112Z,101164.16
2022-12-07T10:28:16.144Z,101176.00
2022-12-07T10:30:53.179Z,101161.81
2022-12-07T10:33:36.528Z,101133.28
2022-12-07T10:36:24.713Z,101163.44
2022-12-07T10:39:04.066Z,101164.03
2022-12-07T10:41:36.897Z,101155.81
2022-12-07T10:44:23.245Z,101121.97
2022-12-07T10:47:08.067Z,101110.72
2022-12-07T10:50:12.075Z,101159.41
2022-12-07T10:53:10.796Z,101151.25
2022-12-07T10:56:00.644Z,101159.44
2022-12-07T10:58:44.054Z,101160.75
2022-12-07T11:01:26.674Z,101149.81
2022-12-07T11:04:16.277Z,101141.13
2022-12-07T11:06:56.912Z,101119.09
2022-12-07T11:12:56.429Z,101082.56
2022-12-07T11:15:38.938Z,101132.44
2022-12-07T11:18:19.048Z,101136.66
2022-12-07T11:20:56.239Z,101111.78
2022-12-07T11:23:42.151Z,101056.56
2022-12-07T11:26:22.090Z,101095.63
2022-12-07T11:29:11.628Z,101126.66
2022-12-07T11:31:59.481Z,101119.09
2022-12-07T11:34:40.511Z,101090.31
2022-12-07T11:37:19.070Z,101078.97
2022-12-07T11:39:57.280Z,101098.97
2022-12-07T11:42:36.524Z,101099.78
2022-12-07T11:45:16.947Z,101105.25
2022-12-07T11:47:56.191Z,101106.78
2022-12-07T11:50:35.498Z,101102.44
2022-12-07T11:53:16.388Z,101098.38
2022-12-07T11:55:54.985Z,101097.88
2022-12-07T11:58:51.486Z,101096.66
2022-12-07T12:01:48.177Z,101097.13
2022-12-07T12:04:42.075Z,101087.84
2022-12-07T12:10:21.020Z,101051.34
2022-12-07T12:16:15.492Z,101085.50
2022-12-07T12:19:12.794Z,101078.75
2022-12-07T12:21:48.629Z,101028.34
2022-12-07T12:24:25.458Z,101069.63
2022-12-07T12:27:04.959Z,101058.75
2022-12-07T12:29:41.877Z,101030.72
2022-12-07T12:32:19.272Z,101066.72
2022-12-07T12:35:21.577Z,101046.81
2022-12-07T12:37:55.671Z,101057.69
2022-12-07T12:40:50.436Z,101043.88
2022-12-07T12:43:47.050Z,101058.38
2022-12-07T12:46:49.969Z,101057.53
2022-12-07T12:49:43.927Z,101021.25
2022-12-07T12:53:10.492Z,101054.56
2022-12-07T12:56:09.217Z,101046.00
2022-12-07T12:58:46.626Z,101047.69
2022-12-07T13:01:44.133Z,101047.13
2022-12-07T13:04:55.601Z,101050.31
2022-12-07T13:07:59.822Z,101042.94
2022-12-07T13:10:44.518Z,101024.72
2022-12-07T13:13:38.230Z,101020.38
2022-12-07T13:16:40.712Z,101035.56
2022-12-07T13:20:00.407Z,101031.38
2022-12-07T13:23:00.126Z,101030.72
2022-12-07T13:25:39.921Z,101034.44
2022-12-07T13:28:18.088Z,101032.09
2022-12-07T13:31:02.660Z,101027.84
2022-12-07T13:33:36.995Z,101010.06
2022-12-07T13:36:19.545Z,101000.13
2022-12-07T13:38:58.949Z,101013.22
2022-12-07T13:41:32.204Z,100992.72
2022-12-07T13:44:11.330Z,101009.50
2022-12-07T13:46:52.199Z,101000.50
2022-12-07T13:49:27.441Z,100977.78
2022-12-07T13:52:17.077Z,100976.47
2022-12-07T13:54:58.548Z,100987.22
2022-12-07T13:57:35.581Z,100989.41
2022-12-07T14:00:17.562Z,100968.94
2022-12-07T14:02:58.239Z,100979.56
2022-12-07T14:05:32.819Z,100990.53
2022-12-07T14:08:07.974Z,100989.31
2022-12-07T14:10:44.523Z,100971.53
2022-12-07T14:13:32.644Z,100965.28
2022-12-07T14:16:19.134Z,100978.94
2022-12-07T14:18:52.001Z,100987.44
2022-12-07T14:21:27.453Z,100982.13
2022-12-07T14:24:13.330Z,100981.75
2022-12-07T14:26:49.182Z,100978.69
2022-12-07T14:29:33.917Z,100971.03
2022-12-07T14:32:21.707Z,100971.16
2022-12-07T14:35:03.540Z,100973.19
2022-12-07T14:37:36.451Z,100957.53
2022-12-07T14:40:14.728Z,100967.53
2022-12-07T14:42:53.196Z,100956.38
2022-12-07T14:45:26.032Z,100966.91
2022-12-07T14:53:55.038Z,100955.38
2022-12-07T14:56:30.723Z,100961.13
2022-12-07T14:59:05.022Z,100925.16
2022-12-07T15:01:38.214Z,100956.19
2022-12-07T15:04:11.159Z,100956.38
2022-12-07T15:06:44.877Z,100956.94
2022-12-07T15:09:17.688Z,100957.88
2022-12-07T15:11:50.605Z,100954.31
2022-12-07T15:14:24.754Z,100949.75
2022-12-07T15:17:23.090Z,100954.28
2022-12-07T15:19:50.457Z,100952.59
2022-12-07T15:22:23.236Z,100954.09
2022-12-07T15:24:56.211Z,100947.16
2022-12-07T15:27:29.841Z,100942.53
2022-12-07T15:30:05.481Z,100956.13
2022-12-07T15:32:38.309Z,100900.06
2022-12-07T15:35:11.631Z,100939.28
2022-12-07T15:37:44.475Z,100946.00
2022-12-07T15:40:17.911Z,100942.66
2022-12-07T15:42:50.965Z,100939.13
2022-12-07T15:45:24.377Z,100945.00
2022-12-07T15:50:49.980Z,100936.88
2022-12-07T15:53:22.949Z,100936.41
2022-12-07T15:55:55.738Z,100932.81
2022-12-07T15:58:29.044Z,100933.34
2022-12-07T16:01:12.498Z,100933.94
2022-12-07T16:03:46.152Z,100929.94
2022-12-07T16:06:20.193Z,100934.47
2022-12-07T16:08:53.084Z,100935.06
2022-12-07T16:11:26.002Z,100926.50
2022-12-07T16:13:58.947Z,100922.91
2022-12-07T16:16:33.209Z,100925.09
2022-12-07T16:19:06.482Z,100912.38
2022-12-07T16:21:39.662Z,100916.66
2022-12-07T16:24:13.973Z,100910.03
2022-12-07T16:26:50.172Z,100875.94
2022-12-07T16:29:24.251Z,100910.88
2022-12-07T16:31:58.610Z,100909.25
2022-12-07T16:34:31.514Z,100909.84
2022-12-07T16:37:05.518Z,100910.03
2022-12-07T16:39:38.862Z,100912.84
2022-12-07T16:42:11.694Z,100911.06
2022-12-07T16:44:44.498Z,100902.63
2022-12-07T16:47:18.625Z,100912.16
2022-12-07T16:49:51.841Z,100901.47
2022-12-07T16:52:24.653Z,100891.94
2022-12-07T16:54:57.439Z,100904.66
2022-12-07T16:57:32.407Z,100885.72
2022-12-07T17:00:05.666Z,100898.63
2022-12-07T17:02:39.881Z,100849.09
2022-12-07T17:05:12.685Z,100877.03
2022-12-07T17:07:45.575Z,100882.09
2022-12-07T17:10:18.861Z,100891.13
2022-12-07T17:12:52.348Z,100881.91
2022-12-07T17:15:24.174Z,100887.06
2022-12-07T17:17:59.835Z,100887.19
2022-12-07T17:20:32.612Z,100898.50
2022-12-07T17:23:05.356Z,100888.75
2022-12-07T17:25:38.082Z,100869.75
2022-12-07T17:28:10.975Z,100881.25
2022-12-07T17:30:43.700Z,100884.41
2022-12-07T17:33:17.839Z,100861.72
2022-12-07T17:35:50.613Z,100863.78
2022-12-07T17:38:23.437Z,100858.84
2022-12-07T17:40:56.278Z,100878.72
2022-12-07T17:43:29.037Z,100878.00
2022-12-07T17:46:08.005Z,100869.75
2022-12-07T17:48:42.615Z,100874.47
2022-12-07T17:51:33.015Z,100868.97
2022-12-07T17:54:06.411Z,100850.31
2022-12-07T17:56:39.501Z,100871.53
2022-12-07T17:59:12.864Z,100842.22
2022-12-07T18:01:46.721Z,100872.16
2022-12-07T18:04:21.134Z,100871.97
2022-12-07T18:06:53.926Z,100849.13
2022-12-07T18:09:27.313Z,100858.75
2022-12-07T18:12:00.347Z,100854.75
2022-12-07T18:14:33.368Z,100862.34
2022-12-07T18:17:06.217Z,100805.84
2022-12-07T18:19:40.497Z,100845.13
2022-12-07T18:22:13.270Z,100853.38
2022-12-07T18:24:46.061Z,100860.34
2022-12-07T18:27:18.809Z,100854.41
2022-12-07T18:29:51.608Z,100848.50
2022-12-07T18:32:24.664Z,100830.81
2022-12-07T18:34:58.810Z,100850.41
2022-12-07T18:37:33.239Z,100846.91
2022-12-07T18:40:07.855Z,100842.66
2022-12-07T18:42:40.729Z,100808.22
2022-12-07T18:45:13.512Z,100838.31
2022-12-07T18:47:46.335Z,100829.63
2022-12-07T18:50:20.578Z,100829.63
2022-12-07T18:52:53.401Z,100820.91
2022-12-07T18:55:26.275Z,100821.09
2022-12-07T18:58:00.256Z,100812.41
2022-12-07T19:00:35.372Z,100827.03
2022-12-07T19:03:08.136Z,100803.34
2022-12-07T19:05:42.260Z,100828.75
2022-12-07T19:08:15.503Z,100823.47
2022-12-07T19:10:48.347Z,100833.53
2022-12-07T19:13:21.179Z,100836.75
2022-12-07T19:15:53.958Z,100834.41
2022-12-07T19:18:26.799Z,100831.66
2022-12-07T19:21:03.967Z,100832.69
2022-12-07T19:23:36.755Z,100833.53
2022-12-07T19:26:10.206Z,100824.16
2022-12-07T19:28:43.152Z,100831.56
2022-12-07T19:31:16.765Z,100822.28
2022-12-07T19:33:49.727Z,100822.63
2022-12-07T19:36:23.938Z,100827.16
2022-12-07T19:38:56.760Z,100817.84
2022-12-07T19:41:35.688Z,100819.56
2022-12-07T19:44:11.897Z,100817.34
2022-12-07T19:46:47.500Z,100813.94
2022-12-07T19:49:21.507Z,100806.59
2022-12-07T19:51:57.527Z,100774.13
2022-12-07T19:54:31.907Z,100801.16
2022-12-07T19:57:07.000Z,100777.28
2022-12-07T19:59:40.100Z,100739.56
2022-12-07T20:02:15.344Z,100795.94
2022-12-07T20:04:49.312Z,100793.47
2022-12-07T20:07:23.574Z,100789.91
2022-12-07T20:09:56.391Z,100790.06
2022-12-07T20:12:46.754Z,100759.63
2022-12-07T20:15:19.576Z,100784.28
2022-12-07T20:17:52.393Z,100785.13
2022-12-07T20:20:25.342Z,100763.03
2022-12-07T20:22:59.508Z,100736.41
2022-12-07T20:25:36.086Z,100777.28
2022-12-07T20:28:11.222Z,100775.41
2022-12-07T20:30:47.283Z,100770.41
2022-12-07T20:33:20.796Z,100745.59
2022-12-07T20:35:53.950Z,100733.66
2022-12-07T20:38:29.160Z,100722.34
2022-12-07T20:41:04.476Z,100724.06
2022-12-07T20:43:37.505Z,100747.72
2022-12-07T20:46:13.082Z,100724.47
2022-12-07T20:48:45.909Z,100735.38
2022-12-07T20:51:19.202Z,100705.59
2022-12-07T20:53:53.432Z,100740.44
2022-12-07T20:56:29.017Z,100697.22
2022-12-07T20:59:05.544Z,100739.81
2022-12-07T21:01:38.588Z,100731.91
2022-12-07T21:04:13.508Z,100733.59
2022-12-07T21:06:46.419Z,100737.34
2022-12-07T21:09:26.497Z,100715.28
2022-12-07T21:11:59.315Z,100716.03
2022-12-07T21:14:32.269Z,100714.25
2022-12-07T21:17:05.063Z,100735.56
2022-12-07T21:19:38.240Z,100721.19
2022-12-07T21:22:11.070Z,100703.78
2022-12-07T21:24:45.274Z,100674.41
2022-12-07T21:27:18.441Z,100712.72
2022-12-07T21:29:54.466Z,100729.63
2022-12-07T21:32:27.338Z,100734.91
2022-12-07T21:35:00.195Z,100732.25
2022-12-07T21:37:33.160Z,100701.56
2022-12-07T21:40:13.600Z,100727.75
2022-12-07T21:42:50.184Z,100708.06
2022-12-07T21:45:22.983Z,100724.16
2022-12-07T21:47:55.787Z,100717.50
2022-12-07T21:50:28.568Z,100726.72
2022-12-07T21:53:01.390Z,100718.97
2022-12-07T21:55:35.654Z,100668.47
2022-12-07T21:58:08.476Z,100668.72
2022-12-07T22:00:41.477Z,100709.34
2022-12-07T22:03:14.355Z,100703.38
2022-12-07T22:05:47.275Z,100709.16
2022-12-07T22:08:20.411Z,100711.72
2022-12-07T22:10:55.053Z,100712.56
2022-12-07T22:13:48.643Z,100686.16
2022-12-07T22:16:20.455Z,100712.41
2022-12-07T22:18:53.396Z,100709.00
2022-12-07T22:21:26.861Z,100715.13
2022-12-07T22:23:59.979Z,100673.41
2022-12-07T22:26:34.666Z,100667.13
2022-12-07T22:29:07.730Z,100652.66
2022-12-07T22:31:41.787Z,100694.50
2022-12-07T22:34:16.903Z,100708.00
2022-12-07T22:36:49.587Z,100689.66
2022-12-07T22:39:22.423Z,100691.53
2022-12-07T22:41:56.554Z,100697.75
2022-12-07T22:44:29.380Z,100690.94
2022-12-07T22:47:02.243Z,100694.19
2022-12-07T22:49:35.301Z,100681.00
2022-12-07T22:52:08.279Z,100665.66
2022-12-07T22:54:41.049Z,100667.97
2022-12-07T22:57:15.598Z,100655.28
2022-12-07T22:59:48.393Z,100662.00
2022-12-07T23:02:21.279Z,100661.91
2022-12-07T23:04:54.060Z,100651.72
2022-12-07T23:07:26.917Z,100652.28
2022-12-07T23:09:59.945Z,100637.16
2022-12-07T23:12:51.419Z,100644.56
2022-12-07T23:15:24.224Z,100624.22
2022-12-07T23:17:57.005Z,100618.34
2022-12-07T23:20:29.962Z,100608.91
2022-12-07T23:23:02.788Z,100638.53
2022-12-07T23:25:35.584Z,100624.72
2022-12-07T23:28:09.764Z,100611.63
2022-12-07T23:30:42.601Z,100606.34
2022-12-07T23:33:15.503Z,100610.53
2022-12-07T23:35:48.535Z,100628.13
2022-12-07T23:38:21.383Z,100620.06
2022-12-07T23:40:54.222Z,100622.00
2022-12-07T23:43:31.191Z,100608.03
2022-12-07T23:46:09.279Z,100608.69
2022-12-07T23:48:42.641Z,100614.06
2022-12-07T23:51:16.539Z,100613.97
2022-12-07T23:53:52.749Z,100603.63
2022-12-07T23:56:27.752Z,100581.56
2022-12-07T23:59:03.251Z,100602.09
